sensor_id;sensor_type;location;lat;lon;timestamp;pressure;altitude;pressure_sealevel;temperature;humidity
49723;BME280;43484;43.608;1.458;2023-12-20T00:01:05;100471.00;;;6.80;100.00
49723;BME280;43484;43.608;1.458;2023-12-20T00:03:32;100464.06;;;6.77;100.00
49723;BME280;43484;43.608;1.458;2023-12-20T00:06:08;100460.09;;;6.82;100.00
49723;BME280;43484;43.608;1.458;2023-12-20T00:08:35;100448.69;;;6.76;100.00
49723;BME280;43484;43.608;1.458;2023-12-20T00:11:01;100445.44;;;6.78;100.00
49723;BME280;43484;43.608;1.458;2023-12-20T00:13:28;100448.53;;;6.73;100.00
49723;BME280;43484;43.608;1.458;2023-12-20T00:15:55;100441.16;;;6.77;100.00
49723;BME280;43484;43.608;1.458;2023-12-20T00:18:23;100446.16;;;6.76;100.00
49723;BME280;43484;43.608;1.458;2023-12-20T00:20:49;100450.38;;;6.75;100.00
49723;BME280;43484;43.608;1.458;2023-12-20T00:23:16;100444.72;;;6.81;100.00
49723;BME280;43484;43.608;1.458;2023-12-20T00:25:43;100440.69;;;6.84;100.00
49723;BME280;43484;43.608;1.458;2023-12-20T00:28:09;100426.09;;;6.82;100.00
49723;BME280;43484;43.608;1.458;2023-12-20T00:30:36;100415.06;;;6.81;100.00
49723;BME280;43484;43.608;1.458;2023-12-20T00:33:03;100400.63;;;6.82;100.00
49723;BME280;43484;43.608;1.458;2023-12-20T00:35:30;100413.28;;;6.80;100.00
49723;BME280;43484;43.608;1.458;2023-12-20T00:37:58;100407.03;;;6.90;100.00
49723;BME280;43484;43.608;1.458;2023-12-20T00:40:25;100396.66;;;6.87;100.00
49723;BME280;43484;43.608;1.458;2023-12-20T00:42:52;100387.44;;;6.89;100.00
49723;BME280;43484;43.608;1.458;2023-12-20T00:45:19;100389.84;;;6.86;100.00
49723;BME280;43484;43.608;1.458;2023-12-20T00:47:45;100381.22;;;6.84;100.00
49723;BME280;43484;43.608;1.458;2023-12-20T00:50:12;100371.84;;;6.83;100.00
49723;BME280;43484;43.608;1.458;2023-12-20T00:52:39;100366.69;;;6.81;100.00
49723;BME280;43484;43.608;1.458;2023-12-20T00:55:06;100365.00;;;6.82;100.00
49723;BME280;43484;43.608;1.458;2023-12-20T00:57:34;100363.25;;;6.81;100.00
49723;BME280;43484;43.608;1.458;2023-12-20T01:00:01;100359.97;;;6.83;100.00
49723;BME280;43484;43.608;1.458;2023-12-20T01:02:27;100359.34;;;6.87;100.00
49723;BME280;43484;43.608;1.458;2023-12-20T01:04:54;100355.22;;;6.89;100.00
49723;BME280;43484;43.608;1.458;2023-12-20T01:07:20;100349.09;;;6.86;100.00
49723;BME280;43484;43.608;1.458;2023-12-20T01:09:47;100341.47;;;6.86;100.00
49723;BME280;43484;43.608;1.458;2023-12-20T01:12:14;100339.72;;;6.85;100.00
49723;BME280;43484;43.608;1.458;2023-12-20T01:14:41;100338.97;;;6.87;100.00
49723;BME280;43484;43.608;1.458;2023-12-20T01:17:07;100332.22;;;6.88;100.00
49723;BME280;43484;43.608;1.458;2023-12-20T01:19:34;100334.69;;;6.86;100.00
49723;BME280;43484;43.608;1.458;2023-12-20T01:22:01;100325.38;;;6.87;100.00
49723;BME280;43484;43.608;1.458;2023-12-20T01:24:28;100331.28;;;6.86;100.00
49723;BME280;43484;43.608;1.458;2023-12-20T01:26:54;100326.19;;;6.86;100.00
49723;BME280;43484;43.608;1.458;2023-12-20T01:29:21;100320.13;;;6.84;100.00
49723;BME280;43484;43.608;1.458;2023-12-20T01:31:48;100318.69;;;6.89;100.00
49723;BME280;43484;43.608;1.458;2023-12-20T01:34:15;100316.88;;;6.86;100.00
49723;BME280;43484;43.608;1.458;2023-12-20T01:36:42;100316.00;;;6.86;100.00
49723;BME280;43484;43.608;1.458;2023-12-20T01:39:09;100311.38;;;6.95;100.00
49723;BME280;43484;43.608;1.458;2023-12-20T01:41:50;100309.75;;;6.97;100.00
49723;BME280;43484;43.608;1.458;2023-12-20T01:44:17;100306.19;;;6.93;100.00
49723;BME280;43484;43.608;1.458;2023-12-20T01:46:44;100306.28;;;6.95;100.00
49723;BME280;43484;43.608;1.458;2023-12-20T01:49:11;100302.84;;;6.94;100.00
49723;BME280;43484;43.608;1.458;2023-12-20T01:51:38;100301.91;;;6.92;100.00
49723;BME280;43484;43.608;1.458;2023-12-20T01:54:05;100294.19;;;6.91;100.00
49723;BME280;43484;43.608;1.458;2023-12-20T01:56:33;100294.88;;;6.88;100.00
49723;BME280;43484;43.608;1.458;2023-12-20T01:59:00;100297.53;;;6.90;100.00
49723;BME280;43484;43.608;1.458;2023-12-20T02:01:27;100291.63;;;6.91;100.00
49723;BME280;43484;43.608;1.458;2023-12-20T02:03:55;100277.25;;;6.91;100.00
49723;BME280;43484;43.608;1.458;2023-12-20T02:06:23;100270.31;;;6.89;100.00
49723;BME280;43484;43.608;1.458;2023-12-20T02:08:52;100276.34;;;6.91;100.00
49723;BME280;43484;43.608;1.458;2023-12-20T02:11:19;100273.97;;;6.94;100.00
49723;BME280;43484;43.608;1.458;2023-12-20T02:13:45;100263.84;;;6.95;100.00
49723;BME280;43484;43.608;1.458;2023-12-20T02:16:12;100259.56;;;6.94;100.00
49723;BME280;43484;43.608;1.458;2023-12-20T02:18:39;100263.00;;;6.95;100.00
49723;BME280;43484;43.608;1.458;2023-12-20T02:21:06;100255.50;;;6.98;100.00
49723;BME280;43484;43.608;1.458;2023-12-20T02:23:32;100247.78;;;6.96;100.00
49723;BME280;43484;43.608;1.458;2023-12-20T02:25:59;100241.25;;;7.01;100.00
49723;BME280;43484;43.608;1.458;2023-12-20T02:28:26;100239.66;;;7.21;100.00
49723;BME280;43484;43.608;1.458;2023-12-20T02:30:53;100234.44;;;7.18;100.00
49723;BME280;43484;43.608;1.458;2023-12-20T02:33:20;100233.25;;;7.11;100.00
49723;BME280;43484;43.608;1.458;2023-12-20T02:35:46;100236.44;;;7.07;100.00
49723;BME280;43484;43.608;1.458;2023-12-20T02:38:13;100237.06;;;7.03;100.00
49723;BME280;43484;43.608;1.458;2023-12-20T02:40:40;100237.88;;;7.02;100.00
49723;BME280;43484;43.608;1.458;2023-12-20T02:43:17;100243.88;;;7.03;100.00
49723;BME280;43484;43.608;1.458;2023-12-20T02:45:44;100237.19;;;7.05;100.00
49723;BME280;43484;43.608;1.458;2023-12-20T02:48:11;100233.97;;;7.09;100.00
49723;BME280;43484;43.608;1.458;2023-12-20T02:50:37;100227.34;;;7.12;100.00
49723;BME280;43484;43.608;1.458;2023-12-20T02:53:04;100224.16;;;7.16;100.00
49723;BME280;43484;43.608;1.458;2023-12-20T02:55:30;100215.78;;;7.19;100.00
49723;BME280;43484;43.608;1.458;2023-12-20T02:57:57;100215.06;;;7.21;100.00
49723;BME280;43484;43.608;1.458;2023-12-20T03:00:24;100208.34;;;7.23;100.00
49723;BME280;43484;43.608;1.458;2023-12-20T03:02:51;100196.63;;;7.27;100.00
49723;BME280;43484;43.608;1.458;2023-12-20T03:05:17;100195.63;;;7.23;100.00
49723;BME280;43484;43.608;1.458;2023-12-20T03:07:44;100193.94;;;7.24;100.00
49723;BME280;43484;43.608;1.458;2023-12-20T03:10:12;100196.88;;;7.31;100.00
49723;BME280;43484;43.608;1.458;2023-12-20T03:12:49;100172.25;;;7.32;100.00
49723;BME280;43484;43.608;1.458;2023-12-20T03:15:16;100167.75;;;7.26;100.00
49723;BME280;43484;43.608;1.458;2023-12-20T03:17:43;100174.38;;;7.23;100.00
49723;BME280;43484;43.608;1.458;2023-12-20T03:20:10;100168.25;;;7.19;100.00
49723;BME280;43484;43.608;1.458;2023-12-20T03:22:37;100179.16;;;7.17;100.00
49723;BME280;43484;43.608;1.458;2023-12-20T03:25:04;100181.56;;;7.14;100.00
49723;BME280;43484;43.608;1.458;2023-12-20T03:27:31;100181.50;;;7.12;100.00
49723;BME280;43484;43.608;1.458;2023-12-20T03:29:57;100189.06;;;7.11;100.00
49723;BME280;43484;43.608;1.458;2023-12-20T03:32:24;100186.44;;;7.09;100.00
49723;BME280;43484;43.608;1.458;2023-12-20T03:34:51;100192.25;;;7.07;100.00
49723;BME280;43484;43.608;1.458;2023-12-20T03:37:17;100205.72;;;7.04;100.00
49723;BME280;43484;43.608;1.458;2023-12-20T03:39:44;100216.81;;;7.05;100.00
49723;BME280;43484;43.608;1.458;2023-12-20T03:42:11;100226.75;;;7.00;100.00
49723;BME280;43484;43.608;1.458;2023-12-20T03:44:40;100235.97;;;6.98;100.00
49723;BME280;43484;43.608;1.458;2023-12-20T03:47:07;100246.91;;;6.96;100.00
49723;BME280;43484;43.608;1.458;2023-12-20T03:49:34;100254.31;;;6.91;100.00
49723;BME280;43484;43.608;1.458;2023-12-20T03:52:04;100250.75;;;6.88;100.00
49723;BME280;43484;43.608;1.458;2023-12-20T03:54:31;100265.28;;;6.90;100.00
49723;BME280;43484;43.608;1.458;2023-12-20T03:56:57;100260.13;;;6.89;100.00
49723;BME280;43484;43.608;1.458;2023-12-20T03:59:24;100258.47;;;6.89;100.00
49723;BME280;43484;43.608;1.458;2023-12-20T04:01:51;100276.44;;;6.92;100.00
49723;BME280;43484;43.608;1.458;2023-12-20T04:04:18;100277.16;;;6.90;100.00
49723;BME280;43484;43.608;1.458;2023-12-20T04:06:45;100272.06;;;6.90;100.00
49723;BME280;43484;43.608;1.458;2023-12-20T04:09:12;100286.47;;;6.89;100.00
49723;BME280;43484;43.608;1.458;2023-12-20T04:11:39;100278.81;;;6.89;100.00
49723;BME280;43484;43.608;1.458;2023-12-20T04:14:06;100280.63;;;6.92;100.00
49723;BME280;43484;43.608;1.458;2023-12-20T04:16:34;100286.63;;;6.92;100.00
49723;BME280;43484;43.608;1.458;2023-12-20T04:19:01;100284.16;;;6.94;100.00
49723;BME280;43484;43.608;1.458;2023-12-20T04:21:29;100276.50;;;6.94;100.00
49723;BME280;43484;43.608;1.458;2023-12-20T04:23:56;100287.66;;;6.96;100.00
49723;BME280;43484;43.608;1.458;2023-12-20T04:26:22;100290.75;;;7.06;100.00
49723;BME280;43484;43.608;1.458;2023-12-20T04:28:49;100296.41;;;7.01;100.00
49723;BME280;43484;43.608;1.458;2023-12-20T04:31:18;100299.75;;;7.00;100.00
49723;BME280;43484;43.608;1.458;2023-12-20T04:33:45;100293.78;;;6.99;100.00
49723;BME280;43484;43.608;1.458;2023-12-20T04:36:12;100303.16;;;7.00;100.00
49723;BME280;43484;43.608;1.458;2023-12-20T04:38:39;100299.75;;;7.00;100.00
49723;BME280;43484;43.608;1.458;2023-12-20T04:41:06;100300.59;;;7.00;100.00
49723;BME280;43484;43.608;1.458;2023-12-20T04:43:33;100313.41;;;7.02;100.00
49723;BME280;43484;43.608;1.458;2023-12-20T04:45:59;100312.72;;;7.04;100.00
49723;BME280;43484;43.608;1.458;2023-12-20T04:48:26;100310.38;;;7.09;100.00
49723;BME280;43484;43.608;1.458;2023-12-20T04:50:52;100315.63;;;7.12;100.00
49723;BME280;43484;43.608;1.458;2023-12-20T04:53:19;100316.81;;;7.18;100.00
49723;BME280;43484;43.608;1.458;2023-12-20T04:55:46;100327.09;;;7.20;100.00
49723;BME280;43484;43.608;1.458;2023-12-20T04:58:12;100322.00;;;7.20;100.00
49723;BME280;43484;43.608;1.458;2023-12-20T05:00:39;100314.66;;;7.26;100.00
49723;BME280;43484;43.608;1.458;2023-12-20T05:03:06;100319.19;;;7.31;100.00
49723;BME280;43484;43.608;1.458;2023-12-20T05:05:33;100321.16;;;7.37;100.00
49723;BME280;43484;43.608;1.458;2023-12-20T05:08:00;100328.97;;;7.40;100.00
49723;BME280;43484;43.608;1.458;2023-12-20T05:10:27;100328.09;;;7.39;100.00
49723;BME280;43484;43.608;1.458;2023-12-20T05:12:54;100336.69;;;7.41;100.00
49723;BME280;43484;43.608;1.458;2023-12-20T05:15:21;100341.38;;;7.50;100.00
49723;BME280;43484;43.608;1.458;2023-12-20T05:17:47;100343.81;;;7.48;100.00
49723;BME280;43484;43.608;1.458;2023-12-20T05:20:15;100344.00;;;7.51;100.00
49723;BME280;43484;43.608;1.458;2023-12-20T05:22:42;100349.38;;;7.57;100.00
49723;BME280;43484;43.608;1.458;2023-12-20T05:25:09;100354.53;;;7.59;100.00
49723;BME280;43484;43.608;1.458;2023-12-20T05:27:35;100356.22;;;7.58;100.00
49723;BME280;43484;43.608;1.458;2023-12-20T05:30:02;100361.63;;;7.64;100.00
49723;BME280;43484;43.608;1.458;2023-12-20T05:32:31;100373.81;;;7.70;100.00
49723;BME280;43484;43.608;1.458;2023-12-20T05:34:57;100383.28;;;7.73;100.00
49723;BME280;43484;43.608;1.458;2023-12-20T05:37:24;100389.41;;;7.76;100.00
49723;BME280;43484;43.608;1.458;2023-12-20T05:39:51;100399.25;;;7.86;100.00
49723;BME280;43484;43.608;1.458;2023-12-20T05:42:18;100402.63;;;7.85;100.00
49723;BME280;43484;43.608;1.458;2023-12-20T05:44:44;100404.50;;;7.89;100.00
49723;BME280;43484;43.608;1.458;2023-12-20T05:47:11;100416.75;;;7.96;100.00
49723;BME280;43484;43.608;1.458;2023-12-20T05:49:38;100409.09;;;7.96;100.00
49723;BME280;43484;43.608;1.458;2023-12-20T05:52:04;100420.97;;;7.96;100.00
49723;BME280;43484;43.608;1.458;2023-12-20T05:54:31;100422.00;;;7.99;100.00
49723;BME280;43484;43.608;1.458;2023-12-20T05:56:58;100432.13;;;7.98;100.00
49723;BME280;43484;43.608;1.458;2023-12-20T05:59:24;100432.06;;;7.96;100.00
49723;BME280;43484;43.608;1.458;2023-12-20T06:01:51;100443.28;;;8.00;100.00
49723;BME280;43484;43.608;1.458;2023-12-20T06:04:18;100460.41;;;8.02;100.00
49723;BME280;43484;43.608;1.458;2023-12-20T06:06:48;100470.13;;;8.09;100.00
49723;BME280;43484;43.608;1.458;2023-12-20T06:09:15;100470.78;;;8.05;100.00
49723;BME280;43484;43.608;1.458;2023-12-20T06:11:42;100471.44;;;8.01;100.00
49723;BME280;43484;43.608;1.458;2023-12-20T06:14:08;100473.84;;;7.98;100.00
49723;BME280;43484;43.608;1.458;2023-12-20T06:16:35;100476.38;;;7.98;100.00
49723;BME280;43484;43.608;1.458;2023-12-20T06:19:02;100482.44;;;8.00;100.00
49723;BME280;43484;43.608;1.458;2023-12-20T06:21:28;100485.00;;;8.00;100.00
49723;BME280;43484;43.608;1.458;2023-12-20T06:23:55;100489.50;;;8.06;100.00
49723;BME280;43484;43.608;1.458;2023-12-20T06:26:22;100494.84;;;8.10;100.00
49723;BME280;43484;43.608;1.458;2023-12-20T06:28:48;100500.81;;;8.11;100.00
49723;BME280;43484;43.608;1.458;2023-12-20T06:31:16;100505.13;;;8.12;100.00
49723;BME280;43484;43.608;1.458;2023-12-20T06:33:43;100518.25;;;8.19;100.00
49723;BME280;43484;43.608;1.458;2023-12-20T06:36:13;100513.28;;;8.22;100.00
49723;BME280;43484;43.608;1.458;2023-12-20T06:38:40;100526.94;;;8.23;100.00
49723;BME280;43484;43.608;1.458;2023-12-20T06:41:08;100531.44;;;8.27;100.00
49723;BME280;43484;43.608;1.458;2023-12-20T06:43:35;100532.28;;;8.27;100.00
49723;BME280;43484;43.608;1.458;2023-12-20T06:46:15;100544.50;;;8.33;100.00
49723;BME280;43484;43.608;1.458;2023-12-20T06:48:42;100554.78;;;8.34;100.00
49723;BME280;43484;43.608;1.458;2023-12-20T06:51:14;100558.34;;;8.38;100.00
49723;BME280;43484;43.608;1.458;2023-12-20T06:53:41;100564.72;;;8.46;100.00
49723;BME280;43484;43.608;1.458;2023-12-20T06:56:10;100574.91;;;8.46;100.00
49723;BME280;43484;43.608;1.458;2023-12-20T06:58:37;100581.06;;;8.49;100.00
49723;BME280;43484;43.608;1.458;2023-12-20T07:01:04;100598.44;;;8.56;100.00
49723;BME280;43484;43.608;1.458;2023-12-20T07:03:31;100591.00;;;8.61;100.00
49723;BME280;43484;43.608;1.458;2023-12-20T07:05:58;100588.69;;;8.65;100.00
49723;BME280;43484;43.608;1.458;2023-12-20T07:08:25;100595.06;;;8.57;100.00
49723;BME280;43484;43.608;1.458;2023-12-20T07:10:52;100597.56;;;8.56;100.00
49723;BME280;43484;43.608;1.458;2023-12-20T07:13:19;100604.50;;;8.58;100.00
49723;BME280;43484;43.608;1.458;2023-12-20T07:15:45;100600.09;;;8.56;100.00
49723;BME280;43484;43.608;1.458;2023-12-20T07:18:12;100613.69;;;8.55;100.00
49723;BME280;43484;43.608;1.458;2023-12-20T07:20:39;100615.22;;;8.51;100.00
49723;BME280;43484;43.608;1.458;2023-12-20T07:23:05;100615.84;;;8.47;100.00
49723;BME280;43484;43.608;1.458;2023-12-20T07:25:32;100631.00;;;8.44;100.00
49723;BME280;43484;43.608;1.458;2023-12-20T07:27:59;100633.34;;;8.40;100.00
49723;BME280;43484;43.608;1.458;2023-12-20T07:30:26;100643.63;;;8.41;100.00
49723;BME280;43484;43.608;1.458;2023-12-20T07:32:53;100629.84;;;8.38;100.00
49723;BME280;43484;43.608;1.458;2023-12-20T07:35:19;100639.16;;;8.37;100.00
49723;BME280;43484;43.608;1.458;2023-12-20T07:37:46;100628.56;;;8.30;100.00
49723;BME280;43484;43.608;1.458;2023-12-20T07:40:13;100654.03;;;8.28;100.00
49723;BME280;43484;43.608;1.458;2023-12-20T07:42:40;100632.78;;;8.29;100.00
49723;BME280;43484;43.608;1.458;2023-12-20T07:45:06;100635.28;;;8.28;100.00
49723;BME280;43484;43.608;1.458;2023-12-20T07:47:33;100624.09;;;8.26;100.00
49723;BME280;43484;43.608;1.458;2023-12-20T07:50:00;100633.38;;;8.24;100.00
49723;BME280;43484;43.608;1.458;2023-12-20T07:52:27;100640.59;;;8.16;100.00
49723;BME280;43484;43.608;1.458;2023-12-20T07:54:54;100642.34;;;8.17;100.00
49723;BME280;43484;43.608;1.458;2023-12-20T07:57:21;100639.34;;;8.24;100.00
49723;BME280;43484;43.608;1.458;2023-12-20T07:59:48;100646.88;;;8.23;100.00
49723;BME280;43484;43.608;1.458;2023-12-20T08:02:14;100653.59;;;8.21;100.00
49723;BME280;43484;43.608;1.458;2023-12-20T08:04:41;100643.31;;;8.19;100.00
49723;BME280;43484;43.608;1.458;2023-12-20T08:07:08;100649.91;;;8.16;100.00
49723;BME280;43484;43.608;1.458;2023-12-20T08:09:35;100651.63;;;8.15;100.00
49723;BME280;43484;43.608;1.458;2023-12-20T08:12:03;100654.78;;;8.11;100.00
49723;BME280;43484;43.608;1.458;2023-12-20T08:14:30;100647.88;;;8.09;100.00
49723;BME280;43484;43.608;1.458;2023-12-20T08:16:58;100652.00;;;8.07;100.00
49723;BME280;43484;43.608;1.458;2023-12-20T08:19:24;100642.50;;;8.04;100.00
49723;BME280;43484;43.608;1.458;2023-12-20T08:21:52;100633.41;;;8.09;100.00
49723;BME280;43484;43.608;1.458;2023-12-20T08:24:19;100626.97;;;8.00;100.00
49723;BME280;43484;43.608;1.458;2023-12-20T08:26:45;100635.59;;;8.02;100.00
49723;BME280;43484;43.608;1.458;2023-12-20T08:29:13;100642.28;;;8.00;100.00
49723;BME280;43484;43.608;1.458;2023-12-20T08:31:40;100649.00;;;8.14;100.00
49723;BME280;43484;43.608;1.458;2023-12-20T08:34:07;100636.22;;;7.98;100.00
49723;BME280;43484;43.608;1.458;2023-12-20T08:36:34;100646.66;;;8.02;100.00
49723;BME280;43484;43.608;1.458;2023-12-20T08:39:01;100652.25;;;8.11;100.00
49723;BME280;43484;43.608;1.458;2023-12-20T08:41:29;100647.47;;;8.01;100.00
49723;BME280;43484;43.608;1.458;2023-12-20T08:43:56;100653.19;;;7.97;100.00
49723;BME280;43484;43.608;1.458;2023-12-20T08:46:23;100659.09;;;7.96;100.00
49723;BME280;43484;43.608;1.458;2023-12-20T08:48:50;100659.19;;;7.98;100.00
49723;BME280;43484;43.608;1.458;2023-12-20T08:51:17;100653.19;;;7.97;100.00
49723;BME280;43484;43.608;1.458;2023-12-20T08:53:43;100665.00;;;7.95;100.00
49723;BME280;43484;43.608;1.458;2023-12-20T08:56:12;100651.75;;;8.02;100.00
49723;BME280;43484;43.608;1.458;2023-12-20T08:58:38;100668.75;;;8.02;100.00
49723;BME280;43484;43.608;1.458;2023-12-20T09:01:05;100658.28;;;7.97;100.00
49723;BME280;43484;43.608;1.458;2023-12-20T09:03:32;100662.06;;;8.04;100.00
49723;BME280;43484;43.608;1.458;2023-12-20T09:05:59;100668.59;;;7.99;100.00
49723;BME280;43484;43.608;1.458;2023-12-20T09:08:25;100657.59;;;8.00;100.00
49723;BME280;43484;43.608;1.458;2023-12-20T09:10:52;100657.13;;;8.07;100.00
49723;BME280;43484;43.608;1.458;2023-12-20T09:13:19;100652.56;;;8.01;100.00
49723;BME280;43484;43.608;1.458;2023-12-20T09:15:47;100654.22;;;8.01;100.00
49723;BME280;43484;43.608;1.458;2023-12-20T09:18:13;100663.00;;;8.06;100.00
49723;BME280;43484;43.608;1.458;2023-12-20T09:20:40;100657.75;;;8.03;100.00
49723;BME280;43484;43.608;1.458;2023-12-20T09:23:09;100661.97;;;8.02;100.00
49723;BME280;43484;43.608;1.458;2023-12-20T09:25:36;100651.69;;;8.01;100.00
49723;BME280;43484;43.608;1.458;2023-12-20T09:28:03;100665.47;;;8.04;100.00
49723;BME280;43484;43.608;1.458;2023-12-20T09:30:30;100659.53;;;8.04;100.00
49723;BME280;43484;43.608;1.458;2023-12-20T09:32:56;100667.09;;;8.18;100.00
49723;BME280;43484;43.608;1.458;2023-12-20T09:35:24;100659.97;;;8.13;100.00
49723;BME280;43484;43.608;1.458;2023-12-20T09:37:51;100657.34;;;8.11;100.00
49723;BME280;43484;43.608;1.458;2023-12-20T09:40:18;100661.63;;;8.12;100.00
49723;BME280;43484;43.608;1.458;2023-12-20T09:43:03;100654.47;;;8.21;100.00
49723;BME280;43484;43.608;1.458;2023-12-20T09:45:31;100657.84;;;8.20;100.00
49723;BME280;43484;43.608;1.458;2023-12-20T09:47:58;100660.88;;;8.29;100.00
49723;BME280;43484;43.608;1.458;2023-12-20T09:50:26;100645.34;;;8.25;100.00
49723;BME280;43484;43.608;1.458;2023-12-20T09:52:53;100639.41;;;8.26;100.00
49723;BME280;43484;43.608;1.458;2023-12-20T09:55:24;100628.81;;;8.34;100.00
49723;BME280;43484;43.608;1.458;2023-12-20T09:57:51;100620.91;;;8.30;100.00
49723;BME280;43484;43.608;1.458;2023-12-20T10:00:18;100616.50;;;8.43;100.00
49723;BME280;43484;43.608;1.458;2023-12-20T10:05:17;100601.34;;;8.46;100.00
49723;BME280;43484;43.608;1.458;2023-12-20T10:07:47;100600.44;;;8.46;100.00
49723;BME280;43484;43.608;1.458;2023-12-20T10:10:14;100597.59;;;8.40;100.00
49723;BME280;43484;43.608;1.458;2023-12-20T10:13:01;100584.03;;;8.41;100.00
49723;BME280;43484;43.608;1.458;2023-12-20T10:15:28;100587.63;;;8.44;100.00
49723;BME280;43484;43.608;1.458;2023-12-20T10:17:56;100579.66;;;8.38;100.00
49723;BME280;43484;43.608;1.458;2023-12-20T10:20:28;100567.88;;;8.58;100.00
49723;BME280;43484;43.608;1.458;2023-12-20T10:22:57;100569.53;;;8.57;100.00
49723;BME280;43484;43.608;1.458;2023-12-20T10:25:25;100570.22;;;8.53;100.00
49723;BME280;43484;43.608;1.458;2023-12-20T10:28:11;100561.38;;;8.47;100.00
49723;BME280;43484;43.608;1.458;2023-12-20T10:30:39;100567.59;;;8.52;100.00
49723;BME280;43484;43.608;1.458;2023-12-20T10:33:07;100551.47;;;8.70;100.00
49723;BME280;43484;43.608;1.458;2023-12-20T10:35:38;100555.06;;;8.74;100.00
49723;BME280;43484;43.608;1.458;2023-12-20T10:38:11;100551.97;;;8.63;100.00
49723;BME280;43484;43.608;1.458;2023-12-20T10:40:40;100543.22;;;8.76;100.00
49723;BME280;43484;43.608;1.458;2023-12-20T10:43:08;100524.59;;;8.78;100.00
49723;BME280;43484;43.608;1.458;2023-12-20T10:45:35;100530.69;;;8.80;100.00
49723;BME280;43484;43.608;1.458;2023-12-20T10:48:02;100513.72;;;8.82;100.00
49723;BME280;43484;43.608;1.458;2023-12-20T10:50:31;100520.91;;;9.09;100.00
49723;BME280;43484;43.608;1.458;2023-12-20T10:52:58;100511.91;;;9.17;100.00
49723;BME280;43484;43.608;1.458;2023-12-20T10:55:26;100512.47;;;8.92;100.00
49723;BME280;43484;43.608;1.458;2023-12-20T10:58:00;100507.06;;;9.04;100.00
49723;BME280;43484;43.608;1.458;2023-12-20T11:00:29;100528.59;;;9.09;100.00
49723;BME280;43484;43.608;1.458;2023-12-20T11:03:00;100541.94;;;9.03;100.00
49723;BME280;43484;43.608;1.458;2023-12-20T11:05:36;100573.19;;;8.98;100.00
49723;BME280;43484;43.608;1.458;2023-12-20T11:08:44;100606.34;;;9.14;100.00
49723;BME280;43484;43.608;1.458;2023-12-20T11:11:23;100669.09;;;9.07;100.00
49723;BME280;43484;43.608;1.458;2023-12-20T11:16:20;100714.72;;;9.17;100.00
49723;BME280;43484;43.608;1.458;2023-12-20T11:18:50;100720.53;;;9.31;100.00
49723;BME280;43484;43.608;1.458;2023-12-20T11:21:17;100736.78;;;9.15;100.00
49723;BME280;43484;43.608;1.458;2023-12-20T11:23:44;100759.97;;;9.02;100.00
49723;BME280;43484;43.608;1.458;2023-12-20T11:26:11;100758.72;;;8.94;100.00
49723;BME280;43484;43.608;1.458;2023-12-20T11:28:37;100770.53;;;8.76;100.00
49723;BME280;43484;43.608;1.458;2023-12-20T11:31:05;100765.38;;;8.74;100.00
49723;BME280;43484;43.608;1.458;2023-12-20T11:33:36;100775.91;;;8.80;100.00
49723;BME280;43484;43.608;1.458;2023-12-20T11:36:13;100788.50;;;8.77;100.00
49723;BME280;43484;43.608;1.458;2023-12-20T11:38:56;100796.97;;;8.76;100.00
49723;BME280;43484;43.608;1.458;2023-12-20T11:41:25;100799.47;;;8.75;100.00
49723;BME280;43484;43.608;1.458;2023-12-20T11:43:55;100809.75;;;8.76;100.00
49723;BME280;43484;43.608;1.458;2023-12-20T11:46:22;100797.75;;;8.92;100.00
49723;BME280;43484;43.608;1.458;2023-12-20T11:48:50;100822.28;;;8.88;100.00
49723;BME280;43484;43.608;1.458;2023-12-20T11:51:17;100838.34;;;8.85;100.00
49723;BME280;43484;43.608;1.458;2023-12-20T11:53:43;100843.06;;;8.94;100.00
49723;BME280;43484;43.608;1.458;2023-12-20T11:56:11;100866.19;;;8.97;100.00
49723;BME280;43484;43.608;1.458;2023-12-20T11:58:37;100918.44;;;9.02;100.00
49723;BME280;43484;43.608;1.458;2023-12-20T12:01:05;100934.63;;;9.03;100.00
49723;BME280;43484;43.608;1.458;2023-12-20T12:03:35;100952.84;;;9.09;100.00
49723;BME280;43484;43.608;1.458;2023-12-20T12:06:03;100960.28;;;9.04;100.00
49723;BME280;43484;43.608;1.458;2023-12-20T12:08:31;100975.34;;;9.00;100.00
49723;BME280;43484;43.608;1.458;2023-12-20T12:10:58;100993.00;;;8.95;100.00
49723;BME280;43484;43.608;1.458;2023-12-20T12:13:25;101003.16;;;9.10;100.00
49723;BME280;43484;43.608;1.458;2023-12-20T12:15:54;101016.28;;;9.16;100.00
49723;BME280;43484;43.608;1.458;2023-12-20T12:18:21;101015.00;;;9.24;100.00
49723;BME280;43484;43.608;1.458;2023-12-20T12:20:48;101004.72;;;9.38;100.00
49723;BME280;43484;43.608;1.458;2023-12-20T12:23:22;101016.72;;;9.39;100.00
49723;BME280;43484;43.608;1.458;2023-12-20T12:25:50;101018.97;;;9.49;100.00
49723;BME280;43484;43.608;1.458;2023-12-20T12:28:17;101015.25;;;9.60;100.00
49723;BME280;43484;43.608;1.458;2023-12-20T12:30:56;101018.28;;;9.53;100.00
49723;BME280;43484;43.608;1.458;2023-12-20T12:33:27;101006.06;;;9.64;100.00
49723;BME280;43484;43.608;1.458;2023-12-20T12:35:54;101021.66;;;9.52;100.00
49723;BME280;43484;43.608;1.458;2023-12-20T12:38:21;101035.84;;;9.15;100.00
49723;BME280;43484;43.608;1.458;2023-12-20T12:40:49;101031.19;;;8.77;100.00
49723;BME280;43484;43.608;1.458;2023-12-20T12:43:16;101043.22;;;8.64;100.00
49723;BME280;43484;43.608;1.458;2023-12-20T12:45:43;101024.75;;;8.53;100.00
49723;BME280;43484;43.608;1.458;2023-12-20T12:48:10;101030.91;;;8.57;100.00
49723;BME280;43484;43.608;1.458;2023-12-20T12:50:37;101027.06;;;8.79;100.00
49723;BME280;43484;43.608;1.458;2023-12-20T12:53:04;101020.31;;;8.51;100.00
49723;BME280;43484;43.608;1.458;2023-12-20T12:55:31;101025.50;;;8.67;100.00
49723;BME280;43484;43.608;1.458;2023-12-20T12:57:58;101034.78;;;8.96;100.00